createdAt,value
2022-10-22T00:00:55.703Z,89.75
2022-10-22T00:03:22.195Z,89.74
2022-10-22T00:05:48.641Z,89.76
2022-10-22T00:08:15.094Z,89.79
2022-10-22T00:10:41.824Z,89.72
2022-10-22T00:13:08.241Z,89.71
2022-10-22T00:15:34.880Z,89.66
2022-10-22T00:18:01.329Z,89.64
2022-10-22T00:20:27.802Z,89.68
2022-10-22T00:22:54.273Z,89.67
2022-10-22T00:25:20.715Z,89.71
2022-10-22T00:27:47.151Z,89.72
2022-10-22T00:30:13.766Z,89.74
2022-10-22T00:32:40.455Z,89.71
2022-10-22T00:35:07.644Z,89.76
2022-10-22T00:37:34.117Z,89.75
2022-10-22T00:40:07.284Z,89.79
2022-10-22T00:42:33.682Z,89.73
2022-10-22T00:45:02.864Z,89.77
2022-10-22T00:47:35.297Z,89.55
2022-10-22T00:52:35.581Z,89.52
2022-10-22T00:55:02.158Z,89.45
2022-10-22T00:57:28.829Z,89.44
2022-10-22T00:59:55.912Z,89.35
2022-10-22T01:02:22.438Z,89.36
2022-10-22T01:04:48.868Z,89.51
2022-10-22T01:07:18.430Z,89.53
2022-10-22T01:10:07.576Z,89.43
2022-10-22T01:13:06.308Z,89.39
2022-10-22T01:15:45.576Z,89.45
2022-10-22T01:18:48.753Z,89.41
2022-10-22T01:21:18.404Z,89.45
2022-10-22T01:24:02.674Z,89.53
2022-10-22T01:26:50.406Z,89.66
2022-10-22T01:29:42.534Z,89.59
2022-10-22T01:32:14.673Z,89.74
2022-10-22T01:34:46.467Z,89.80
2022-10-22T01:37:15.258Z,89.82
2022-10-22T01:39:45.361Z,89.75
2022-10-22T01:42:13.208Z,89.90
2022-10-22T01:44:39.789Z,89.89
2022-10-22T01:47:30.995Z,90.05
2022-10-22T01:50:09.346Z,90.05
2022-10-22T01:53:06.545Z,90.14
2022-10-22T01:55:55.871Z,90.23
2022-10-22T01:58:25.336Z,90.21
2022-10-22T02:01:08.779Z,90.21
2022-10-22T02:03:48.732Z,90.21
2022-10-22T02:06:20.607Z,90.18
2022-10-22T02:08:49.305Z,90.04
2022-10-22T02:11:16.376Z,90.08
2022-10-22T02:13:46.788Z,90.00
2022-10-22T02:16:21.711Z,89.85
2022-10-22T02:18:52.677Z,89.74
2022-10-22T02:21:19.255Z,89.81
2022-10-22T02:23:46.666Z,89.81
2022-10-22T02:26:31.543Z,89.64
2022-10-22T02:29:00.711Z,89.83
2022-10-22T02:31:33.848Z,89.56
2022-10-22T02:34:05.320Z,89.63
2022-10-22T02:36:32.225Z,89.56
2022-10-22T02:39:00.062Z,89.33
2022-10-22T02:41:28.038Z,89.30
2022-10-22T02:43:55.522Z,89.27
2022-10-22T02:46:22.950Z,89.21
2022-10-22T02:48:49.368Z,89.30
2022-10-22T02:51:15.793Z,89.21
2022-10-22T02:53:42.283Z,89.21
2022-10-22T02:56:08.712Z,89.22
2022-10-22T02:58:35.215Z,89.25
2022-10-22T03:01:01.690Z,89.30
2022-10-22T03:03:28.143Z,89.33
2022-10-22T03:05:54.544Z,89.48
2022-10-22T03:08:21.253Z,89.47
2022-10-22T03:10:47.691Z,89.58
2022-10-22T03:13:14.092Z,89.61
2022-10-22T03:15:40.551Z,89.74
2022-10-22T03:18:07.020Z,89.85
2022-10-22T03:20:33.435Z,89.88
2022-10-22T03:23:02.299Z,89.89
2022-10-22T03:25:31.027Z,90.05
2022-10-22T03:28:03.080Z,90.11
2022-10-22T03:30:29.548Z,90.12
2022-10-22T03:32:55.974Z,90.26
2022-10-22T03:35:22.470Z,90.39
2022-10-22T03:37:49.214Z,90.54
2022-10-22T03:40:15.850Z,90.64
2022-10-22T03:42:42.676Z,90.78
2022-10-22T03:45:09.693Z,90.80
2022-10-22T03:47:37.346Z,90.91
2022-10-22T03:50:04.888Z,90.93
2022-10-22T03:52:36.723Z,91.03
2022-10-22T03:55:04.477Z,90.93
2022-10-22T03:57:30.968Z,90.91
2022-10-22T03:59:57.383Z,90.90
2022-10-22T04:02:23.755Z,90.76
2022-10-22T04:04:50.163Z,90.80
2022-10-22T04:07:16.613Z,90.68
2022-10-22T04:09:43.024Z,90.47
2022-10-22T04:12:09.555Z,90.22
2022-10-22T04:14:35.964Z,90.08
2022-10-22T04:17:02.468Z,90.09
2022-10-22T04:19:28.893Z,90.24
2022-10-22T04:21:58.321Z,90.23
2022-10-22T04:24:24.828Z,90.39
2022-10-22T04:26:54.323Z,90.21
2022-10-22T04:29:20.764Z,90.15
2022-10-22T04:31:47.183Z,89.89
2022-10-22T04:34:13.587Z,89.68
2022-10-22T04:36:40.027Z,89.53
2022-10-22T04:39:06.739Z,89.42
2022-10-22T04:41:35.821Z,89.35
2022-10-22T04:44:03.198Z,89.22
2022-10-22T04:46:32.047Z,89.18
2022-10-22T04:48:58.810Z,89.15
2022-10-22T04:51:26.619Z,89.19
2022-10-22T04:53:53.341Z,89.18
2022-10-22T04:56:27.489Z,89.11
2022-10-22T04:58:59.951Z,89.05
2022-10-22T05:01:36.962Z,88.98
2022-10-22T05:04:08.146Z,89.10
2022-10-22T05:06:36.424Z,89.10
2022-10-22T05:09:11.533Z,89.11
2022-10-22T05:11:41.581Z,89.03
2022-10-22T05:14:10.385Z,89.03
2022-10-22T05:16:38.165Z,88.81
2022-10-22T05:19:05.719Z,88.73
2022-10-22T05:21:32.381Z,88.86
2022-10-22T05:24:01.692Z,88.80
2022-10-22T05:26:29.104Z,88.81
2022-10-22T05:28:56.699Z,88.77
2022-10-22T05:31:23.418Z,88.69
2022-10-22T05:33:50.052Z,88.61
2022-10-22T05:36:19.515Z,88.59
2022-10-22T05:38:46.404Z,88.58
2022-10-22T05:41:15.435Z,88.54
2022-10-22T05:43:42.247Z,88.47
2022-10-22T05:46:13.578Z,88.48
2022-10-22T05:48:40.536Z,88.42
2022-10-22T05:51:09.351Z,88.49
2022-10-22T05:53:38.311Z,88.36
2022-10-22T05:56:08.427Z,88.71
2022-10-22T05:58:36.185Z,88.43
2022-10-22T06:01:08.216Z,88.43
2022-10-22T06:03:34.746Z,88.37
2022-10-22T06:06:04.834Z,88.35
2022-10-22T06:08:31.471Z,88.35
2022-10-22T06:10:58.121Z,88.74
2022-10-22T06:13:24.539Z,88.61
2022-10-22T06:15:53.440Z,88.96
2022-10-22T06:18:19.957Z,88.48
2022-10-22T06:20:47.548Z,88.36
2022-10-22T06:23:14.769Z,88.43
2022-10-22T06:25:42.374Z,88.41
2022-10-22T06:28:08.989Z,88.39
2022-10-22T06:30:39.141Z,88.35
2022-10-22T06:33:07.087Z,88.40
2022-10-22T06:35:33.487Z,88.26
2022-10-22T06:38:00.168Z,88.18
2022-10-22T06:40:26.694Z,88.33
2022-10-22T06:42:53.132Z,88.36
2022-10-22T06:45:19.557Z,88.40
2022-10-22T06:47:47.232Z,88.49
2022-10-22T06:50:13.632Z,88.56
2022-10-22T06:52:40.036Z,88.55
2022-10-22T06:55:06.616Z,88.54
2022-10-22T06:57:33.086Z,88.58
2022-10-22T06:59:59.487Z,88.73
2022-10-22T07:02:25.974Z,88.64
2022-10-22T07:04:52.541Z,88.67
2022-10-22T07:07:18.968Z,88.80
2022-10-22T07:09:47.312Z,88.88
2022-10-22T07:12:14.002Z,89.90
2022-10-22T07:14:40.424Z,88.88
2022-10-22T07:17:06.825Z,88.87
2022-10-22T07:19:33.589Z,88.91
2022-10-22T07:22:00.743Z,88.92
2022-10-22T07:24:27.335Z,88.82
2022-10-22T07:26:53.935Z,88.88
2022-10-22T07:29:20.373Z,88.94
2022-10-22T07:31:46.824Z,88.95
2022-10-22T07:34:13.458Z,88.96
2022-10-22T07:36:39.902Z,89.08
2022-10-22T07:39:06.490Z,89.12
2022-10-22T07:41:33.261Z,89.20
2022-10-22T07:43:59.923Z,89.04
2022-10-22T07:46:26.927Z,88.90
2022-10-22T07:48:53.549Z,88.95
2022-10-22T07:51:20.105Z,89.04
2022-10-22T07:53:46.636Z,89.07
2022-10-22T07:56:13.843Z,89.24
2022-10-22T07:58:41.529Z,89.29
2022-10-22T08:01:08.248Z,89.20
2022-10-22T08:03:34.832Z,89.04
2022-10-22T08:06:01.629Z,89.45
2022-10-22T08:08:30.847Z,89.13
2022-10-22T08:10:59.936Z,89.27
2022-10-22T08:13:27.390Z,89.29
2022-10-22T08:15:57.255Z,89.20
2022-10-22T08:18:24.436Z,89.02
2022-10-22T08:20:51.192Z,88.88
2022-10-22T08:23:17.976Z,88.87
2022-10-22T08:25:44.362Z,88.75
2022-10-22T08:28:10.812Z,88.74
2022-10-22T08:30:38.620Z,88.75
2022-10-22T08:33:05.688Z,88.75
2022-10-22T08:35:32.175Z,88.72
2022-10-22T08:37:58.695Z,88.81
2022-10-22T08:40:37.342Z,88.64
2022-10-22T08:43:41.875Z,88.60
2022-10-22T08:46:32.538Z,88.39
2022-10-22T08:49:03.051Z,88.42
2022-10-22T08:51:40.273Z,88.18
2022-10-22T08:54:30.550Z,88.19
2022-10-22T08:57:04.136Z,88.21
2022-10-22T08:59:44.389Z,88.46
2022-10-22T09:02:27.218Z,88.43
2022-10-22T09:05:21.484Z,88.89
2022-10-22T09:07:50.322Z,89.19
2022-10-22T09:10:19.977Z,89.41
2022-10-22T09:12:48.293Z,89.46
2022-10-22T09:15:15.622Z,89.79
2022-10-22T09:17:48.122Z,89.66
2022-10-22T09:20:41.591Z,89.81
2022-10-22T09:23:19.233Z,89.75
2022-10-22T09:25:46.913Z,89.61
2022-10-22T09:28:13.848Z,89.67
2022-10-22T09:30:40.469Z,90.05
2022-10-22T09:33:14.380Z,90.26
2022-10-22T09:35:52.356Z,90.28
2022-10-22T09:38:21.771Z,90.25
2022-10-22T09:40:54.293Z,90.38
2022-10-22T09:43:21.109Z,90.37
2022-10-22T09:45:49.450Z,90.36
2022-10-22T09:48:26.484Z,90.54
2022-10-22T09:51:18.329Z,90.62
2022-10-22T09:53:47.543Z,90.59
2022-10-22T09:56:23.765Z,90.63
2022-10-22T09:58:51.235Z,90.74
2022-10-22T10:01:28.030Z,91.01
2022-10-22T10:04:04.479Z,91.31
2022-10-22T10:06:34.841Z,91.69
2022-10-22T10:09:05.697Z,91.74
2022-10-22T10:11:48.845Z,91.96
2022-10-22T10:14:34.756Z,92.04
2022-10-22T10:17:12.872Z,91.83
2022-10-22T10:19:47.492Z,92.20
2022-10-22T10:22:20.609Z,92.38
2022-10-22T10:25:14.456Z,93.06
2022-10-22T10:27:47.735Z,93.98
2022-10-22T10:30:18.028Z,94.68
2022-10-22T10:33:10.301Z,96.21
2022-10-22T10:36:03.374Z,100.00
2022-10-22T10:38:41.981Z,100.00
2022-10-22T10:41:15.900Z,100.00
2022-10-22T10:44:17.616Z,100.00
2022-10-22T10:46:57.367Z,100.00
2022-10-22T10:49:26.306Z,100.00
2022-10-22T10:52:06.647Z,100.00
2022-10-22T10:54:50.012Z,100.00
2022-10-22T10:57:39.789Z,100.00
2022-10-22T11:00:14.271Z,100.00
2022-10-22T11:02:50.829Z,100.00
2022-10-22T11:05:37.289Z,100.00
2022-10-22T11:08:21.621Z,100.00
2022-10-22T11:10:56.671Z,100.00
2022-10-22T11:13:48.027Z,100.00
2022-10-22T11:16:26.993Z,100.00
2022-10-22T11:19:49.792Z,100.00
2022-10-22T11:22:26.460Z,100.00
2022-10-22T11:25:00.032Z,100.00
2022-10-22T11:27:50.316Z,100.00
2022-10-22T11:30:21.159Z,100.00
2022-10-22T11:32:53.148Z,100.00
2022-10-22T11:35:26.925Z,100.00
2022-10-22T11:37:56.211Z,100.00
2022-10-22T11:40:34.249Z,100.00
2022-10-22T11:43:09.668Z,100.00
2022-10-22T11:45:39.208Z,100.00
2022-10-22T11:48:11.398Z,100.00
2022-10-22T11:50:54.914Z,100.00
2022-10-22T11:53:37.249Z,100.00
2022-10-22T11:56:22.732Z,100.00
2022-10-22T11:58:52.301Z,100.00
2022-10-22T12:01:27.667Z,100.00
2022-10-22T12:04:17.053Z,100.00
2022-10-22T12:06:56.448Z,100.00
2022-10-22T12:09:26.275Z,100.00
2022-10-22T12:11:52.784Z,100.00
2022-10-22T12:14:40.690Z,100.00
2022-10-22T12:17:19.098Z,100.00
2022-10-22T12:20:02.831Z,100.00
2022-10-22T12:22:32.503Z,100.00
2022-10-22T12:25:06.147Z,100.00
2022-10-22T12:27:41.454Z,100.00
2022-10-22T12:30:22.705Z,100.00
2022-10-22T12:32:53.651Z,100.00
2022-10-22T12:35:24.075Z,100.00
2022-10-22T12:38:15.276Z,100.00
2022-10-22T12:40:45.907Z,100.00
2022-10-22T12:43:17.877Z,100.00
2022-10-22T12:45:47.143Z,100.00
2022-10-22T12:48:20.545Z,100.00
2022-10-22T12:50:53.365Z,100.00
2022-10-22T12:53:26.071Z,100.00
2022-10-22T12:55:55.420Z,100.00
2022-10-22T12:58:33.862Z,100.00
2022-10-22T13:01:03.663Z,100.00
2022-10-22T13:03:40.641Z,100.00
2022-10-22T13:06:20.169Z,100.00
2022-10-22T13:09:12.330Z,100.00
2022-10-22T13:11:42.319Z,100.00
2022-10-22T13:14:41.051Z,100.00
2022-10-22T13:17:37.052Z,100.00
2022-10-22T13:20:15.002Z,100.00
2022-10-22T13:23:03.374Z,100.00
2022-10-22T13:25:39.553Z,100.00
2022-10-22T13:28:15.014Z,100.00
2022-10-22T13:30:52.876Z,100.00
2022-10-22T13:33:38.285Z,100.00
2022-10-22T13:36:06.003Z,100.00
2022-10-22T13:38:32.642Z,100.00
2022-10-22T13:40:59.414Z,100.00
2022-10-22T13:43:26.402Z,100.00
2022-10-22T13:45:55.542Z,100.00
2022-10-22T13:48:24.914Z,100.00
2022-10-22T13:50:52.271Z,100.00
2022-10-22T13:53:22.067Z,100.00
2022-10-22T13:55:50.155Z,100.00
2022-10-22T13:58:20.170Z,100.00
2022-10-22T14:00:50.413Z,100.00
2022-10-22T14:03:21.416Z,100.00
2022-10-22T14:05:48.828Z,100.00
2022-10-22T14:08:18.767Z,100.00
2022-10-22T14:10:45.701Z,100.00
2022-10-22T14:13:14.295Z,100.00
2022-10-22T14:15:41.610Z,100.00
2022-10-22T14:18:15.374Z,100.00
2022-10-22T14:20:42.884Z,100.00
2022-10-22T14:25:43.512Z,100.00
2022-10-22T14:28:13.840Z,100.00
2022-10-22T14:30:41.146Z,100.00
2022-10-22T14:33:32.622Z,100.00
2022-10-22T14:36:00.140Z,100.00
2022-10-22T14:38:26.576Z,100.00
2022-10-22T14:40:53.123Z,100.00
2022-10-22T14:43:24.547Z,100.00
2022-10-22T14:45:50.972Z,100.00
2022-10-22T14:50:49.172Z,100.00
2022-10-22T14:53:19.471Z,100.00
2022-10-22T14:55:47.432Z,100.00
2022-10-22T14:58:14.126Z,100.00
2022-10-22T15:00:41.824Z,100.00
2022-10-22T15:03:08.358Z,100.00
2022-10-22T15:05:36.360Z,100.00
2022-10-22T15:08:02.864Z,100.00
2022-10-22T15:10:29.413Z,100.00
2022-10-22T15:12:56.055Z,100.00
2022-10-22T15:15:23.230Z,100.00
2022-10-22T15:17:51.240Z,100.00
2022-10-22T15:20:17.812Z,100.00
2022-10-22T15:22:45.266Z,100.00
2022-10-22T15:25:13.281Z,100.00
2022-10-22T15:27:40.319Z,100.00
2022-10-22T15:30:08.474Z,100.00
2022-10-22T15:32:34.973Z,100.00
2022-10-22T15:35:01.865Z,100.00
2022-10-22T15:37:28.299Z,100.00
2022-10-22T15:39:54.831Z,100.00
2022-10-22T15:42:21.440Z,100.00
2022-10-22T15:44:47.844Z,100.00
2022-10-22T15:47:14.248Z,100.00
2022-10-22T15:49:41.823Z,100.00
2022-10-22T15:52:09.072Z,100.00
2022-10-22T15:54:35.907Z,100.00
2022-10-22T15:57:03.847Z,100.00
2022-10-22T15:59:30.319Z,100.00
2022-10-22T16:01:56.832Z,100.00
2022-10-22T16:04:23.331Z,100.00
2022-10-22T16:06:54.786Z,100.00
2022-10-22T16:09:23.960Z,100.00
2022-10-22T16:14:23.995Z,100.00
2022-10-22T16:16:52.856Z,100.00
2022-10-22T16:19:21.157Z,100.00
2022-10-22T16:21:50.015Z,100.00
2022-10-22T16:24:17.926Z,100.00
2022-10-22T16:26:44.621Z,100.00
2022-10-22T16:29:12.483Z,100.00
2022-10-22T16:31:40.573Z,100.00
2022-10-22T16:34:07.628Z,100.00
2022-10-22T16:36:36.125Z,100.00
2022-10-22T16:39:04.943Z,100.00
2022-10-22T16:41:37.756Z,100.00
2022-10-22T16:44:07.681Z,100.00
2022-10-22T16:46:38.341Z,100.00
2022-10-22T16:49:05.680Z,100.00
2022-10-22T16:51:32.214Z,100.00
2022-10-22T16:53:59.049Z,100.00
2022-10-22T16:56:26.136Z,100.00
2022-10-22T16:58:55.013Z,100.00
2022-10-22T17:01:25.886Z,100.00
2022-10-22T17:03:54.673Z,100.00
2022-10-22T17:06:22.214Z,100.00
2022-10-22T17:08:48.685Z,100.00
2022-10-22T17:11:18.763Z,100.00
2022-10-22T17:13:48.933Z,100.00
2022-10-22T17:16:18.473Z,100.00
2022-10-22T17:21:18.501Z,100.00
2022-10-22T17:23:46.047Z,100.00
2022-10-22T17:26:16.655Z,100.00
2022-10-22T17:28:43.492Z,100.00
2022-10-22T17:31:18.048Z,100.00
2022-10-22T17:33:44.955Z,100.00
2022-10-22T17:36:12.960Z,100.00
2022-10-22T17:38:41.514Z,100.00
2022-10-22T17:41:11.471Z,100.00
2022-10-22T17:43:41.124Z,100.00
2022-10-22T17:46:10.800Z,100.00
2022-10-22T17:48:37.504Z,100.00
2022-10-22T17:51:12.074Z,100.00
2022-10-22T17:53:46.014Z,100.00
2022-10-22T17:56:15.426Z,100.00
2022-10-22T17:58:42.143Z,100.00
2022-10-22T18:01:26.297Z,100.00
2022-10-22T18:03:54.292Z,100.00
2022-10-22T18:06:21.966Z,100.00
2022-10-22T18:08:48.691Z,100.00
2022-10-22T18:11:21.492Z,100.00
2022-10-22T18:13:52.429Z,100.00
2022-10-22T18:16:19.816Z,100.00
2022-10-22T18:18:50.864Z,100.00
2022-10-22T18:21:18.473Z,100.00
2022-10-22T18:23:45.625Z,100.00
2022-10-22T18:26:13.047Z,100.00
2022-10-22T18:28:39.496Z,100.00
2022-10-22T18:31:08.063Z,100.00
2022-10-22T18:33:36.987Z,100.00
2022-10-22T18:36:09.355Z,100.00
2022-10-22T18:38:38.082Z,100.00
2022-10-22T18:41:09.552Z,100.00
2022-10-22T18:43:36.756Z,100.00
2022-10-22T18:46:06.223Z,100.00
2022-10-22T18:48:32.671Z,100.00
2022-10-22T18:51:01.816Z,100.00
2022-10-22T18:53:29.018Z,100.00
2022-10-22T18:55:56.934Z,100.00
2022-10-22T18:58:23.588Z,100.00
2022-10-22T19:00:51.140Z,100.00
2022-10-22T19:03:17.688Z,100.00
2022-10-22T19:05:52.051Z,100.00
2022-10-22T19:08:19.471Z,100.00
2022-10-22T19:10:47.395Z,100.00
2022-10-22T19:13:15.655Z,100.00
2022-10-22T19:15:42.111Z,100.00
2022-10-22T19:18:08.764Z,100.00
2022-10-22T19:20:36.488Z,100.00
2022-10-22T19:23:03.480Z,100.00
2022-10-22T19:25:29.913Z,100.00
2022-10-22T19:27:56.418Z,100.00
2022-10-22T19:30:24.245Z,100.00
2022-10-22T19:32:50.711Z,100.00
2022-10-22T19:35:17.296Z,100.00
2022-10-22T19:37:48.210Z,100.00
2022-10-22T19:40:15.366Z,100.00
2022-10-22T19:42:44.264Z,100.00
2022-10-22T19:45:11.263Z,100.00
2022-10-22T19:47:37.747Z,100.00
2022-10-22T19:50:04.532Z,100.00
2022-10-22T19:52:30.922Z,100.00
2022-10-22T19:54:57.452Z,100.00
2022-10-22T19:57:23.883Z,100.00
2022-10-22T19:59:51.043Z,100.00
2022-10-22T20:02:18.200Z,100.00
2022-10-22T20:04:49.131Z,100.00
2022-10-22T20:07:16.418Z,100.00
2022-10-22T20:09:42.846Z,100.00
2022-10-22T20:12:09.276Z,100.00
2022-10-22T20:14:35.791Z,100.00
2022-10-22T20:17:02.202Z,100.00
2022-10-22T20:19:29.754Z,100.00
2022-10-22T20:21:56.254Z,100.00
2022-10-22T20:24:22.871Z,100.00
2022-10-22T20:26:49.323Z,100.00
2022-10-22T20:29:16.429Z,100.00
2022-10-22T20:31:42.858Z,100.00
2022-10-22T20:34:09.358Z,100.00
2022-10-22T20:36:35.809Z,100.00
2022-10-22T20:39:06.178Z,100.00
2022-10-22T20:41:34.099Z,100.00
2022-10-22T20:44:00.888Z,100.00
2022-10-22T20:46:30.747Z,100.00
2022-10-22T20:49:04.834Z,100.00
2022-10-22T20:51:31.852Z,100.00
2022-10-22T20:53:58.828Z,100.00
2022-10-22T20:56:25.644Z,100.00
2022-10-22T20:59:03.776Z,100.00
2022-10-22T21:01:42.555Z,100.00
2022-10-22T21:04:09.375Z,100.00
2022-10-22T21:06:38.181Z,100.00
2022-10-22T21:09:06.546Z,100.00
2022-10-22T21:11:33.389Z,100.00
2022-10-22T21:14:00.125Z,100.00
2022-10-22T21:16:26.828Z,100.00
2022-10-22T21:18:53.355Z,100.00
2022-10-22T21:21:19.992Z,100.00
2022-10-22T21:23:46.711Z,100.00
2022-10-22T21:26:13.184Z,99.82
2022-10-22T21:28:39.670Z,98.79
2022-10-22T21:31:08.349Z,97.90
2022-10-22T21:33:39.173Z,97.57
2022-10-22T21:36:06.912Z,97.23
2022-10-22T21:38:34.621Z,97.60
2022-10-22T21:41:08.351Z,96.91
2022-10-22T21:43:37.899Z,96.39
2022-10-22T21:46:16.943Z,96.20
2022-10-22T21:48:44.051Z,96.11
2022-10-22T21:51:14.343Z,96.01
2022-10-22T21:53:41.251Z,95.74
2022-10-22T21:56:12.872Z,95.29
2022-10-22T21:58:39.300Z,95.04
2022-10-22T22:01:05.943Z,94.71
2022-10-22T22:03:33.187Z,94.57
2022-10-22T22:06:01.609Z,94.29
2022-10-22T22:08:28.719Z,94.27
2022-10-22T22:11:09.576Z,94.05
2022-10-22T22:13:36.900Z,94.17
2022-10-22T22:16:06.715Z,94.02
2022-10-22T22:18:34.437Z,94.03
2022-10-22T22:21:04.693Z,94.04
2022-10-22T22:23:31.592Z,93.94
2022-10-22T22:25:59.311Z,93.99
2022-10-22T22:28:26.122Z,94.02
2022-10-22T22:30:52.529Z,93.95
2022-10-22T22:33:18.967Z,94.07
2022-10-22T22:35:45.416Z,93.94
2022-10-22T22:38:11.828Z,93.92
2022-10-22T22:40:39.431Z,93.89
2022-10-22T22:43:05.873Z,93.56
2022-10-22T22:45:32.267Z,93.16
2022-10-22T22:47:58.755Z,92.99
2022-10-22T22:50:25.191Z,92.77
2022-10-22T22:52:51.584Z,92.24
2022-10-22T22:55:18.212Z,92.22
2022-10-22T22:57:44.675Z,92.42
2022-10-22T23:00:12.873Z,91.90
2022-10-22T23:02:39.711Z,91.84
2022-10-22T23:05:06.898Z,91.62
2022-10-22T23:07:33.404Z,91.55
2022-10-22T23:10:00.119Z,91.57
2022-10-22T23:12:26.647Z,91.49
2022-10-22T23:14:53.031Z,91.34
2022-10-22T23:17:19.869Z,91.43
2022-10-22T23:19:46.307Z,91.10
2022-10-22T23:22:12.937Z,91.00
2022-10-22T23:24:39.547Z,90.82
2022-10-22T23:27:05.975Z,90.72
2022-10-22T23:29:34.285Z,90.74
2022-10-22T23:32:01.413Z,90.53
2022-10-22T23:34:28.820Z,90.45
2022-10-22T23:36:55.798Z,90.54
2022-10-22T23:39:25.038Z,90.25
2022-10-22T23:41:53.077Z,90.30
2022-10-22T23:44:20.434Z,89.88
2022-10-22T23:46:46.913Z,89.82
2022-10-22T23:49:14.307Z,89.66
2022-10-22T23:51:41.083Z,89.68
2022-10-22T23:54:12.583Z,89.50
2022-10-22T23:56:39.220Z,89.45
2022-10-22T23:59:05.894Z,89.53
